createdAt,value
2019-03-15T00:01:42.615Z,74.15
2019-03-15T00:04:11.546Z,73.93
2019-03-15T00:06:40.423Z,74.32
2019-03-15T00:09:09.344Z,74.27
2019-03-15T00:11:38.269Z,74.55
2019-03-15T00:14:07.147Z,74.81
2019-03-15T00:16:36.036Z,75.26
2019-03-15T00:19:05.046Z,74.81
2019-03-15T00:21:33.917Z,74.69
2019-03-15T00:24:02.812Z,75.10
2019-03-15T00:26:31.687Z,75.00
2019-03-15T00:29:00.594Z,74.89
2019-03-15T00:31:29.499Z,75.06
2019-03-15T00:33:58.377Z,75.02
2019-03-15T00:36:27.272Z,75.04
2019-03-15T00:38:56.154Z,75.46
2019-03-15T00:41:25.067Z,75.74
2019-03-15T00:43:53.939Z,76.04
2019-03-15T00:46:22.910Z,76.16
2019-03-15T00:48:51.726Z,75.76
2019-03-15T00:51:20.608Z,76.09
2019-03-15T00:53:49.484Z,75.97
2019-03-15T00:56:18.382Z,76.08
2019-03-15T00:58:47.264Z,76.02
2019-03-15T01:01:16.165Z,76.50
2019-03-15T01:03:45.034Z,76.80
2019-03-15T01:06:13.924Z,76.92
2019-03-15T01:08:42.838Z,76.54
2019-03-15T01:11:11.746Z,76.83
2019-03-15T01:13:40.621Z,76.46
2019-03-15T01:16:09.539Z,77.16
2019-03-15T01:18:38.420Z,77.20
2019-03-15T01:21:07.328Z,77.24
2019-03-15T01:23:36.197Z,76.75
2019-03-15T01:26:05.082Z,76.96
2019-03-15T01:28:33.979Z,76.88
2019-03-15T01:31:02.847Z,77.62
2019-03-15T01:33:31.736Z,77.61
2019-03-15T01:36:00.652Z,77.30
2019-03-15T01:38:29.564Z,77.21
2019-03-15T01:40:58.411Z,77.10
2019-03-15T01:43:27.311Z,77.07
2019-03-15T01:45:56.200Z,77.03
2019-03-15T01:48:25.093Z,77.10
2019-03-15T01:50:53.995Z,76.99
2019-03-15T01:53:23.524Z,76.87
2019-03-15T01:55:51.765Z,76.51
2019-03-15T01:58:20.648Z,76.68
2019-03-15T02:00:49.541Z,76.96
2019-03-15T02:03:18.426Z,77.22
2019-03-15T02:05:47.334Z,77.17
2019-03-15T02:08:16.205Z,77.00
2019-03-15T02:10:45.106Z,76.70
2019-03-15T02:13:13.989Z,76.55
2019-03-15T02:15:43.469Z,75.36
2019-03-15T02:18:11.763Z,76.41
2019-03-15T02:20:40.672Z,76.46
2019-03-15T02:23:09.616Z,76.48
2019-03-15T02:25:38.476Z,76.61
2019-03-15T02:28:07.420Z,76.83
2019-03-15T02:30:36.300Z,76.89
2019-03-15T02:33:06.012Z,76.72
2019-03-15T02:35:34.054Z,77.01
2019-03-15T02:38:02.942Z,76.76
2019-03-15T02:40:31.807Z,77.28
2019-03-15T02:43:00.717Z,77.38
2019-03-15T02:45:29.579Z,77.50
2019-03-15T02:47:58.497Z,77.63
2019-03-15T02:50:29.091Z,77.77
2019-03-15T02:52:56.234Z,77.58
2019-03-15T02:55:25.127Z,78.20
2019-03-15T02:57:53.996Z,78.05
2019-03-15T03:00:22.878Z,78.01
2019-03-15T03:02:51.899Z,77.94
2019-03-15T03:05:20.621Z,78.40
2019-03-15T03:07:49.507Z,78.50
2019-03-15T03:10:18.380Z,78.93
2019-03-15T03:12:47.279Z,79.02
2019-03-15T03:15:16.195Z,79.41
2019-03-15T03:17:45.037Z,79.47
2019-03-15T03:20:13.974Z,79.52
2019-03-15T03:22:42.814Z,79.26
2019-03-15T03:25:11.725Z,79.46
2019-03-15T03:27:40.608Z,79.64
2019-03-15T03:30:09.524Z,80.04
2019-03-15T03:32:38.390Z,79.73
2019-03-15T03:35:09.584Z,80.19
2019-03-15T03:37:36.238Z,80.20
2019-03-15T03:40:05.503Z,80.65
2019-03-15T03:42:34.433Z,80.31
2019-03-15T03:45:03.264Z,80.90
2019-03-15T03:47:32.810Z,80.52
2019-03-15T03:50:01.014Z,80.57
2019-03-15T03:52:29.897Z,80.97
2019-03-15T03:54:58.771Z,80.62
2019-03-15T03:57:27.654Z,80.49
2019-03-15T03:59:56.517Z,81.07
2019-03-15T04:02:25.450Z,81.19
2019-03-15T04:04:54.331Z,81.13
2019-03-15T04:07:23.665Z,81.45
2019-03-15T04:09:52.535Z,81.75
2019-03-15T04:12:21.413Z,80.73
2019-03-15T04:14:50.276Z,81.32
2019-03-15T04:17:19.150Z,81.28
2019-03-15T04:19:48.055Z,81.43
2019-03-15T04:22:16.933Z,81.06
2019-03-15T04:24:45.826Z,82.01
2019-03-15T04:27:14.714Z,81.79
2019-03-15T04:29:43.597Z,81.98
2019-03-15T04:32:12.498Z,81.57
2019-03-15T04:34:41.404Z,81.71
2019-03-15T04:37:10.272Z,81.39
2019-03-15T04:39:39.164Z,81.42
2019-03-15T04:42:08.078Z,80.85
2019-03-15T04:44:36.962Z,80.85
2019-03-15T04:47:05.880Z,80.98
2019-03-15T04:49:34.746Z,81.16
2019-03-15T04:52:03.657Z,81.23
2019-03-15T04:54:32.533Z,81.45
2019-03-15T04:57:01.428Z,81.63
2019-03-15T04:59:30.313Z,81.85
2019-03-15T05:01:59.217Z,81.73
2019-03-15T05:04:28.087Z,81.73
2019-03-15T05:06:56.960Z,81.82
2019-03-15T05:09:25.861Z,80.46
2019-03-15T05:11:54.761Z,81.36
2019-03-15T05:14:23.655Z,81.38
2019-03-15T05:16:52.518Z,81.79
2019-03-15T05:19:21.431Z,81.57
2019-03-15T05:21:50.318Z,82.00
2019-03-15T05:24:19.216Z,81.80
2019-03-15T05:26:48.085Z,81.84
2019-03-15T05:29:16.960Z,81.98
2019-03-15T05:31:45.834Z,82.04
2019-03-15T05:34:14.723Z,82.10
2019-03-15T05:36:43.628Z,82.22
2019-03-15T05:39:12.494Z,82.67
2019-03-15T05:41:41.388Z,82.57
2019-03-15T05:44:10.276Z,82.29
2019-03-15T05:46:39.174Z,82.71
2019-03-15T05:49:08.147Z,83.07
2019-03-15T05:51:37.051Z,83.25
2019-03-15T05:54:05.917Z,83.63
2019-03-15T05:56:34.795Z,84.00
2019-03-15T05:59:03.684Z,83.63
2019-03-15T06:01:32.564Z,84.42
2019-03-15T06:04:01.462Z,84.67
2019-03-15T06:06:30.323Z,85.04
2019-03-15T06:08:59.188Z,84.25
2019-03-15T06:11:28.076Z,85.60
2019-03-15T06:13:56.984Z,86.37
2019-03-15T06:16:25.870Z,86.36
2019-03-15T06:18:54.748Z,86.12
2019-03-15T06:21:23.617Z,86.83
2019-03-15T06:23:52.519Z,86.85
2019-03-15T06:26:21.391Z,87.40
2019-03-15T06:28:50.268Z,87.42
2019-03-15T06:31:19.114Z,88.16
2019-03-15T06:33:48.019Z,87.73
2019-03-15T06:36:16.897Z,87.52
2019-03-15T06:38:45.781Z,87.46
2019-03-15T06:41:14.700Z,87.71
2019-03-15T06:43:43.533Z,88.93
2019-03-15T06:46:12.421Z,89.45
2019-03-15T06:48:44.638Z,90.06
2019-03-15T06:51:10.266Z,89.23
2019-03-15T06:53:39.177Z,90.06
2019-03-15T06:56:08.178Z,89.27
2019-03-15T06:58:37.112Z,90.89
2019-03-15T07:01:06.047Z,91.05
2019-03-15T07:03:34.979Z,91.51
2019-03-15T07:06:03.976Z,92.24
2019-03-15T07:08:32.849Z,92.29
2019-03-15T07:11:01.719Z,92.30
2019-03-15T07:13:30.616Z,92.28
2019-03-15T07:15:59.530Z,92.44
2019-03-15T07:18:28.434Z,93.17
2019-03-15T07:20:57.338Z,93.32
2019-03-15T07:23:26.281Z,92.75
2019-03-15T07:25:55.136Z,92.94
2019-03-15T07:28:24.050Z,92.99
2019-03-15T07:30:53.012Z,92.87
2019-03-15T07:33:23.219Z,93.34
2019-03-15T07:35:50.783Z,92.99
2019-03-15T07:38:19.676Z,93.32
2019-03-15T07:40:48.577Z,93.93
2019-03-15T07:43:19.895Z,93.94
2019-03-15T07:45:46.351Z,93.94
2019-03-15T07:48:22.466Z,93.50
2019-03-15T07:50:44.130Z,94.22
2019-03-15T07:53:13.094Z,94.24
2019-03-15T07:55:41.915Z,94.17
2019-03-15T07:58:10.802Z,93.98
2019-03-15T08:00:39.670Z,93.96
2019-03-15T08:03:08.731Z,93.87
2019-03-15T08:05:38.220Z,94.30
2019-03-15T08:08:06.801Z,93.84
2019-03-15T08:10:35.635Z,94.00
2019-03-15T08:13:04.528Z,94.77
2019-03-15T08:15:33.425Z,94.02
2019-03-15T08:18:02.319Z,94.10
2019-03-15T08:20:31.225Z,94.44
2019-03-15T08:23:00.067Z,94.67
2019-03-15T08:25:28.935Z,94.61
2019-03-15T08:27:58.052Z,95.19
2019-03-15T08:30:26.920Z,95.12
2019-03-15T08:33:09.249Z,95.14
2019-03-15T08:35:24.860Z,94.98
2019-03-15T08:37:53.637Z,94.80
2019-03-15T08:40:25.652Z,94.33
2019-03-15T08:42:51.446Z,94.79
2019-03-15T08:45:20.330Z,95.23
2019-03-15T08:47:49.215Z,94.75
2019-03-15T08:50:18.079Z,94.46
2019-03-15T08:52:46.964Z,94.71
2019-03-15T08:55:15.841Z,95.44
2019-03-15T08:57:44.723Z,95.83
2019-03-15T09:00:13.693Z,95.10
2019-03-15T09:02:42.569Z,94.76
2019-03-15T09:05:11.487Z,95.75
2019-03-15T09:07:40.364Z,95.91
2019-03-15T09:10:21.840Z,95.91
2019-03-15T09:12:38.630Z,95.66
2019-03-15T09:15:07.703Z,95.56
2019-03-15T09:17:36.603Z,95.75
2019-03-15T09:20:05.543Z,95.52
2019-03-15T09:22:37.776Z,95.19
2019-03-15T09:25:03.841Z,95.20
2019-03-15T09:27:32.771Z,95.42
2019-03-15T09:30:01.733Z,95.13
2019-03-15T09:32:30.507Z,95.13
2019-03-15T09:34:59.413Z,95.04
2019-03-15T09:37:28.277Z,95.33
2019-03-15T09:39:57.169Z,95.21
2019-03-15T09:42:26.066Z,95.17
2019-03-15T09:44:54.979Z,95.01
2019-03-15T09:47:23.874Z,95.29
2019-03-15T09:49:52.782Z,94.31
2019-03-15T09:52:21.695Z,94.79
2019-03-15T09:54:50.573Z,94.68
2019-03-15T09:57:19.462Z,94.64
2019-03-15T09:59:48.381Z,93.98
2019-03-15T10:02:29.323Z,93.50
2019-03-15T10:04:46.139Z,93.22
2019-03-15T10:07:15.232Z,92.95
2019-03-15T10:09:46.093Z,92.42
2019-03-15T10:12:12.942Z,91.36
2019-03-15T10:14:41.848Z,91.29
2019-03-15T10:17:10.746Z,91.33
2019-03-15T10:19:39.634Z,91.28
2019-03-15T10:22:08.741Z,91.05
2019-03-15T10:24:37.651Z,91.06
2019-03-15T10:27:06.613Z,89.94
2019-03-15T10:29:35.545Z,90.69
2019-03-15T10:32:04.478Z,90.95
2019-03-15T10:34:35.653Z,89.02
2019-03-15T10:37:02.320Z,89.66
2019-03-15T10:39:31.215Z,89.05
2019-03-15T10:42:00.097Z,88.73
2019-03-15T10:44:28.996Z,88.48
2019-03-15T10:46:57.882Z,88.46
2019-03-15T10:49:26.759Z,87.96
2019-03-15T10:51:55.644Z,87.65
2019-03-15T10:54:24.566Z,87.54
2019-03-15T10:56:53.485Z,87.87
2019-03-15T10:59:22.344Z,87.80
2019-03-15T11:01:51.231Z,87.72
2019-03-15T11:04:20.102Z,87.52
2019-03-15T11:06:48.987Z,87.60
2019-03-15T11:09:17.857Z,87.97
2019-03-15T11:11:46.727Z,87.75
2019-03-15T11:14:15.657Z,89.02
2019-03-15T11:16:44.577Z,88.60
2019-03-15T11:19:15.662Z,87.96
2019-03-15T11:21:42.367Z,88.65
2019-03-15T11:24:11.248Z,88.59
2019-03-15T11:26:40.122Z,88.93
2019-03-15T11:29:09.072Z,88.69
2019-03-15T11:31:37.928Z,88.08
2019-03-15T11:34:07.011Z,87.74
2019-03-15T11:36:35.889Z,87.31
2019-03-15T11:39:07.347Z,87.18
2019-03-15T11:41:36.255Z,88.01
2019-03-15T11:44:05.284Z,88.38
2019-03-15T11:46:34.144Z,88.96
2019-03-15T11:49:03.018Z,89.16
2019-03-15T11:51:31.912Z,88.61
2019-03-15T11:54:00.806Z,89.60
2019-03-15T11:56:29.694Z,88.89
2019-03-15T11:58:58.605Z,88.67
2019-03-15T12:01:27.459Z,88.40
2019-03-15T12:03:56.374Z,88.55
2019-03-15T12:06:25.303Z,88.52
2019-03-15T12:08:54.173Z,88.02
2019-03-15T12:11:23.058Z,88.17
2019-03-15T12:13:51.930Z,86.95
2019-03-15T12:16:20.821Z,86.76
2019-03-15T12:18:49.738Z,86.15
2019-03-15T12:21:18.630Z,85.47
2019-03-15T12:23:47.492Z,85.45
2019-03-15T12:26:16.429Z,85.24
2019-03-15T12:28:45.303Z,84.59
2019-03-15T12:31:14.179Z,84.69
2019-03-15T12:33:43.042Z,84.61
2019-03-15T12:36:11.940Z,84.82
2019-03-15T12:38:40.828Z,83.99
2019-03-15T12:41:09.826Z,83.55
2019-03-15T12:43:38.709Z,84.01
2019-03-15T12:46:07.782Z,83.80
2019-03-15T12:48:36.673Z,82.03
2019-03-15T12:51:05.607Z,82.62
2019-03-15T12:53:34.495Z,80.90
2019-03-15T12:56:03.472Z,81.58
2019-03-15T12:58:32.300Z,81.66
2019-03-15T13:01:01.187Z,81.48
2019-03-15T13:03:30.056Z,81.38
2019-03-15T13:05:58.971Z,81.95
2019-03-15T13:08:27.838Z,83.05
2019-03-15T13:10:56.733Z,84.23
2019-03-15T13:13:25.610Z,85.46
2019-03-15T13:15:54.498Z,86.51
2019-03-15T13:18:23.387Z,88.00
2019-03-15T13:20:52.257Z,87.71
2019-03-15T13:23:21.149Z,88.49
2019-03-15T13:25:50.019Z,89.04
2019-03-15T13:28:18.904Z,89.31
2019-03-15T13:30:47.768Z,90.73
2019-03-15T13:33:20.887Z,90.21
2019-03-15T13:35:45.556Z,90.27
2019-03-15T13:38:14.431Z,91.15
2019-03-15T13:40:43.309Z,91.11
2019-03-15T13:43:12.213Z,91.08
2019-03-15T13:45:41.117Z,90.99
2019-03-15T13:48:10.182Z,90.89
2019-03-15T13:50:39.049Z,91.04
2019-03-15T13:53:08.007Z,90.75
2019-03-15T13:55:36.880Z,90.63
2019-03-15T13:58:05.789Z,90.61
2019-03-15T14:00:34.695Z,91.36
2019-03-15T14:03:03.553Z,91.36
2019-03-15T14:05:32.489Z,91.41
2019-03-15T14:08:11.080Z,91.13
2019-03-15T14:10:30.204Z,91.24
2019-03-15T14:12:59.151Z,91.36
2019-03-15T14:15:28.908Z,91.56
2019-03-15T14:17:57.807Z,91.41
2019-03-15T14:20:26.692Z,91.14
2019-03-15T14:22:55.576Z,91.49
2019-03-15T14:25:24.496Z,91.12
2019-03-15T14:27:53.380Z,91.32
2019-03-15T14:30:22.247Z,91.24
2019-03-15T14:32:51.149Z,91.33
2019-03-15T14:35:20.030Z,91.70
2019-03-15T14:37:49.089Z,91.65
2019-03-15T14:40:17.800Z,91.81
2019-03-15T14:42:47.009Z,91.95
2019-03-15T14:45:15.798Z,91.16
2019-03-15T14:47:44.486Z,91.84
2019-03-15T14:50:13.396Z,91.33
2019-03-15T14:52:42.279Z,91.39
2019-03-15T14:55:11.193Z,91.62
2019-03-15T14:57:51.082Z,91.49
2019-03-15T15:00:11.220Z,91.66
2019-03-15T15:02:39.611Z,91.73
2019-03-15T15:05:09.820Z,91.43
2019-03-15T15:07:38.690Z,90.96
2019-03-15T15:10:08.550Z,91.26
2019-03-15T15:12:37.417Z,90.65
2019-03-15T15:15:08.101Z,90.74
2019-03-15T15:17:36.991Z,90.49
2019-03-15T15:20:06.046Z,90.59
2019-03-15T15:22:34.939Z,90.36
2019-03-15T15:25:03.910Z,89.84
2019-03-15T15:27:32.796Z,89.30
2019-03-15T15:30:01.693Z,89.69
2019-03-15T15:32:30.585Z,89.12
2019-03-15T15:34:59.474Z,89.04
2019-03-15T15:37:28.386Z,88.54
2019-03-15T15:40:00.031Z,88.70
2019-03-15T15:42:26.168Z,88.96
2019-03-15T15:44:55.562Z,88.65
2019-03-15T15:47:24.450Z,88.34
2019-03-15T15:49:53.344Z,87.69
2019-03-15T15:52:22.309Z,87.43
2019-03-15T15:54:51.258Z,87.42
2019-03-15T15:57:20.116Z,86.80
2019-03-15T15:59:49.039Z,85.50
2019-03-15T16:02:17.913Z,85.78
2019-03-15T16:04:46.830Z,85.67
2019-03-15T16:07:15.679Z,85.24
2019-03-15T16:09:44.586Z,85.30
2019-03-15T16:12:13.467Z,84.79
2019-03-15T16:14:42.354Z,84.54
2019-03-15T16:17:11.220Z,84.03
2019-03-15T16:19:40.097Z,83.94
2019-03-15T16:22:09.032Z,83.61
2019-03-15T16:24:37.935Z,81.57
2019-03-15T16:27:06.997Z,82.38
2019-03-15T16:29:35.916Z,82.33
2019-03-15T16:32:04.812Z,80.96
2019-03-15T16:34:33.691Z,81.52
2019-03-15T16:37:02.625Z,81.14
2019-03-15T16:39:31.470Z,81.25
2019-03-15T16:42:00.388Z,81.11
2019-03-15T16:44:29.283Z,81.27
2019-03-15T16:46:58.164Z,81.21
2019-03-15T16:49:27.061Z,81.29
2019-03-15T16:51:55.942Z,81.07
2019-03-15T16:54:24.802Z,81.15
2019-03-15T16:56:53.684Z,80.53
2019-03-15T16:59:22.577Z,80.47
2019-03-15T17:01:54.160Z,80.46
2019-03-15T17:04:20.358Z,80.36
2019-03-15T17:06:49.249Z,80.04
2019-03-15T17:09:18.128Z,80.04
2019-03-15T17:11:47.014Z,80.06
2019-03-15T17:14:25.030Z,79.79
2019-03-15T17:16:44.747Z,79.78
2019-03-15T17:19:13.617Z,80.08
2019-03-15T17:21:42.516Z,80.60
2019-03-15T17:24:11.457Z,80.28
2019-03-15T17:26:40.349Z,80.11
2019-03-15T17:29:09.366Z,80.12
2019-03-15T17:31:38.250Z,80.05
2019-03-15T17:34:07.218Z,79.89
2019-03-15T17:36:36.122Z,79.97
2019-03-15T17:39:06.884Z,79.98
2019-03-15T17:41:35.795Z,80.21
2019-03-15T17:44:04.677Z,80.16
2019-03-15T17:46:33.558Z,79.80
2019-03-15T17:49:02.484Z,79.27
2019-03-15T17:51:31.350Z,79.46
2019-03-15T17:54:00.246Z,79.32
2019-03-15T17:56:29.127Z,78.82
2019-03-15T17:59:11.532Z,78.55
2019-03-15T18:01:26.941Z,78.41
2019-03-15T18:03:55.946Z,78.26
2019-03-15T18:06:24.800Z,77.93
2019-03-15T18:08:53.704Z,77.65
2019-03-15T18:11:22.571Z,77.53
2019-03-15T18:13:51.680Z,77.62
2019-03-15T18:16:20.596Z,76.97
2019-03-15T18:18:50.411Z,76.54
2019-03-15T18:21:19.256Z,76.53
2019-03-15T18:23:48.136Z,76.45
2019-03-15T18:26:17.083Z,76.31
2019-03-15T18:28:46.075Z,75.86
2019-03-15T18:31:15.001Z,76.03
2019-03-15T18:33:43.861Z,75.39
2019-03-15T18:36:12.747Z,74.62
2019-03-15T18:38:41.656Z,75.66
2019-03-15T18:41:10.698Z,75.02
2019-03-15T18:43:42.678Z,75.01
2019-03-15T18:46:11.592Z,75.38
2019-03-15T18:48:40.469Z,75.28
2019-03-15T18:51:09.460Z,74.90
2019-03-15T18:53:38.343Z,73.46
2019-03-15T18:56:07.410Z,74.28
2019-03-15T18:58:36.276Z,74.24
2019-03-15T19:01:05.244Z,74.21
2019-03-15T19:03:34.129Z,73.76
2019-03-15T19:06:03.304Z,73.48
2019-03-15T19:08:32.193Z,73.87
2019-03-15T19:11:01.096Z,73.76
2019-03-15T19:13:29.967Z,73.96
2019-03-15T19:15:58.863Z,73.85
2019-03-15T19:18:27.737Z,73.57
2019-03-15T19:20:56.609Z,73.18
2019-03-15T19:23:25.806Z,73.50
2019-03-15T19:25:54.927Z,72.68
2019-03-15T19:28:27.188Z,73.31
2019-03-15T19:30:56.385Z,73.48
2019-03-15T19:33:25.620Z,73.63
2019-03-15T19:35:56.938Z,73.40
2019-03-15T19:38:26.177Z,73.41
2019-03-15T19:40:59.420Z,73.20
2019-03-15T19:43:30.347Z,73.17
2019-03-15T19:45:59.398Z,72.77
2019-03-15T19:48:28.584Z,72.59
2019-03-15T19:50:58.241Z,72.71
2019-03-15T19:53:27.865Z,72.89
2019-03-15T19:55:59.961Z,72.67
2019-03-15T19:58:29.925Z,72.47
2019-03-15T20:00:59.087Z,72.25
2019-03-15T20:03:43.269Z,72.25
2019-03-15T20:06:04.570Z,72.54
2019-03-15T20:08:32.240Z,72.82
2019-03-15T20:11:01.694Z,72.55
2019-03-15T20:13:31.418Z,72.82
2019-03-15T20:16:00.641Z,73.00
2019-03-15T20:18:29.732Z,72.72
2019-03-15T20:20:58.945Z,73.14
2019-03-15T20:23:30.082Z,73.13
2019-03-15T20:25:59.766Z,73.03
2019-03-15T20:28:28.704Z,73.11
2019-03-15T20:31:06.440Z,72.85
2019-03-15T20:33:33.079Z,73.29
2019-03-15T20:36:03.908Z,73.12
2019-03-15T20:38:34.791Z,73.05
2019-03-15T20:41:04.025Z,72.98
2019-03-15T20:43:35.519Z,72.86
2019-03-15T20:46:05.060Z,73.09
2019-03-15T20:48:41.848Z,73.40
2019-03-15T20:51:14.259Z,73.15
2019-03-15T20:53:46.082Z,73.32
2019-03-15T20:56:25.459Z,73.74
2019-03-15T20:58:55.204Z,73.67
2019-03-15T21:01:24.431Z,73.85
2019-03-15T21:03:56.164Z,73.95
2019-03-15T21:06:22.783Z,73.66
2019-03-15T21:08:51.846Z,74.09
2019-03-15T21:11:20.900Z,74.43
2019-03-15T21:13:50.377Z,74.24
2019-03-15T21:16:19.769Z,74.59
2019-03-15T21:18:49.226Z,74.55
2019-03-15T21:21:18.448Z,74.77
2019-03-15T21:23:47.496Z,75.05
2019-03-15T21:26:25.502Z,75.46
2019-03-15T21:28:52.639Z,75.54
2019-03-15T21:31:21.523Z,75.39
2019-03-15T21:33:50.428Z,75.61
2019-03-15T21:36:19.335Z,75.41
2019-03-15T21:38:48.688Z,75.44
2019-03-15T21:41:17.082Z,75.54
2019-03-15T21:43:45.977Z,75.61
2019-03-15T21:46:14.864Z,75.98
2019-03-15T21:48:43.766Z,75.74
2019-03-15T21:51:12.705Z,75.89
2019-03-15T21:53:41.507Z,75.46
2019-03-15T21:56:10.430Z,75.28
2019-03-15T21:58:39.311Z,75.45
2019-03-15T22:01:08.186Z,75.35
2019-03-15T22:03:37.059Z,75.38
2019-03-15T22:06:05.991Z,75.30
2019-03-15T22:08:34.886Z,75.33
2019-03-15T22:11:03.776Z,75.32
2019-03-15T22:13:32.661Z,75.35
2019-03-15T22:16:01.520Z,75.13
2019-03-15T22:18:30.414Z,74.60
2019-03-15T22:20:59.278Z,74.69
2019-03-15T22:23:28.203Z,74.81
2019-03-15T22:25:57.082Z,74.80
2019-03-15T22:28:25.997Z,74.86
2019-03-15T22:30:54.882Z,75.04
2019-03-15T22:33:23.751Z,75.25
2019-03-15T22:35:52.637Z,75.13
2019-03-15T22:38:26.480Z,74.81
2019-03-15T22:40:50.409Z,74.93
2019-03-15T22:43:19.256Z,74.86
2019-03-15T22:45:48.156Z,75.06
2019-03-15T22:48:17.021Z,75.19
2019-03-15T22:50:45.931Z,75.19
2019-03-15T22:53:14.852Z,74.92
2019-03-15T22:55:43.715Z,75.01
2019-03-15T22:58:12.601Z,75.16
2019-03-15T23:00:41.506Z,75.11
2019-03-15T23:03:10.424Z,75.06
2019-03-15T23:05:39.304Z,74.92
2019-03-15T23:08:08.228Z,75.18
2019-03-15T23:10:37.079Z,75.38
2019-03-15T23:13:05.986Z,75.23
2019-03-15T23:15:34.899Z,75.27
2019-03-15T23:18:03.940Z,74.67
2019-03-15T23:20:32.803Z,73.66
2019-03-15T23:23:01.731Z,74.40
2019-03-15T23:25:30.701Z,74.45
2019-03-15T23:27:59.615Z,74.20
2019-03-15T23:30:28.475Z,73.74
2019-03-15T23:32:57.335Z,73.52
2019-03-15T23:35:26.206Z,73.37
2019-03-15T23:37:55.100Z,73.64
2019-03-15T23:40:24.008Z,73.29
2019-03-15T23:42:52.871Z,73.33
2019-03-15T23:45:21.736Z,73.29
2019-03-15T23:47:50.641Z,73.28
2019-03-15T23:50:19.528Z,72.96
2019-03-15T23:52:48.428Z,72.96
2019-03-15T23:55:17.311Z,72.73
2019-03-15T23:57:46.175Z,73.05
